createdAt,value
2018-10-04T00:00:32.083Z,46.50
2018-10-04T00:01:37.320Z,46.50
2018-10-04T00:02:42.517Z,46.50
2018-10-04T00:03:47.752Z,46.50
2018-10-04T00:04:53.045Z,46.50
2018-10-04T00:05:58.255Z,46.50
2018-10-04T00:07:03.541Z,46.50
2018-10-04T00:08:08.744Z,46.60
2018-10-04T00:09:14.014Z,46.60
2018-10-04T00:10:19.287Z,46.60
2018-10-04T00:11:24.536Z,46.50
2018-10-04T00:12:29.797Z,46.60
2018-10-04T00:13:35.052Z,46.60
2018-10-04T00:14:40.327Z,46.60
2018-10-04T00:15:45.577Z,46.60
2018-10-04T00:16:50.840Z,46.60
2018-10-04T00:17:56.103Z,46.60
2018-10-04T00:19:01.427Z,46.60
2018-10-04T00:20:06.674Z,46.60
2018-10-04T00:21:11.908Z,46.60
2018-10-04T00:22:17.196Z,46.70
2018-10-04T00:23:22.426Z,46.60
2018-10-04T00:24:27.697Z,46.60
2018-10-04T00:25:32.926Z,46.80
2018-10-04T00:26:38.136Z,46.70
2018-10-04T00:27:43.321Z,46.70
2018-10-04T00:28:48.513Z,46.60
2018-10-04T00:29:53.741Z,46.60
2018-10-04T00:30:59.014Z,47.40
2018-10-04T00:32:04.328Z,46.70
2018-10-04T00:33:09.616Z,46.70
2018-10-04T00:34:14.787Z,46.70
2018-10-04T00:35:20.015Z,46.70
2018-10-04T00:36:25.263Z,46.70
2018-10-04T00:37:30.457Z,46.70
2018-10-04T00:38:35.718Z,47.40
2018-10-04T00:39:40.956Z,46.80
2018-10-04T00:40:46.156Z,46.70
2018-10-04T00:41:51.387Z,46.70
2018-10-04T00:42:56.621Z,46.80
2018-10-04T00:44:02.033Z,46.70
2018-10-04T00:45:07.260Z,46.70
2018-10-04T00:46:12.530Z,46.70
2018-10-04T00:47:17.801Z,46.80
2018-10-04T00:48:23.073Z,46.80
2018-10-04T00:49:28.320Z,46.90
2018-10-04T00:50:33.633Z,46.80
2018-10-04T00:51:39.037Z,46.90
2018-10-04T00:52:44.278Z,46.90
2018-10-04T00:53:49.609Z,46.90
2018-10-04T00:54:54.850Z,46.80
2018-10-04T00:56:00.111Z,46.80
2018-10-04T00:57:05.373Z,46.90
2018-10-04T00:58:10.679Z,46.80
2018-10-04T00:59:15.840Z,46.80
2018-10-04T01:00:21.161Z,46.90
2018-10-04T01:01:26.464Z,46.80
2018-10-04T01:02:31.732Z,46.90
2018-10-04T01:03:37.100Z,46.90
2018-10-04T01:04:42.371Z,46.90
2018-10-04T01:05:47.695Z,46.90
2018-10-04T01:06:53.026Z,46.90
2018-10-04T01:07:58.342Z,46.90
2018-10-04T01:09:03.672Z,46.90
2018-10-04T01:10:08.996Z,47.00
2018-10-04T01:11:14.306Z,46.90
2018-10-04T01:12:19.616Z,46.90
2018-10-04T01:13:24.996Z,47.00
2018-10-04T01:14:30.413Z,47.60
2018-10-04T01:15:35.741Z,47.00
2018-10-04T01:16:41.014Z,47.00
2018-10-04T01:17:46.351Z,47.00
2018-10-04T01:18:51.631Z,47.60
2018-10-04T01:19:56.907Z,47.00
2018-10-04T01:21:02.218Z,46.90
2018-10-04T01:22:07.483Z,46.90
2018-10-04T01:23:12.756Z,46.90
2018-10-04T01:24:18.014Z,46.90
2018-10-04T01:25:23.313Z,46.90
2018-10-04T01:26:28.647Z,46.90
2018-10-04T01:27:33.915Z,46.90
2018-10-04T01:28:39.163Z,46.90
2018-10-04T01:29:44.366Z,47.10
2018-10-04T01:30:49.649Z,46.90
2018-10-04T01:31:54.936Z,47.10
2018-10-04T01:33:00.206Z,47.10
2018-10-04T01:34:05.459Z,47.10
2018-10-04T01:35:10.727Z,47.10
2018-10-04T01:36:15.975Z,47.10
2018-10-04T01:37:21.252Z,47.10
2018-10-04T01:38:26.558Z,47.00
2018-10-04T01:39:31.829Z,47.10
2018-10-04T01:40:37.099Z,47.10
2018-10-04T01:41:42.352Z,47.10
2018-10-04T01:42:47.541Z,47.20
2018-10-04T01:43:52.846Z,47.20
2018-10-04T01:44:57.998Z,47.80
2018-10-04T01:46:03.308Z,47.20
2018-10-04T01:47:08.473Z,47.10
2018-10-04T01:48:13.787Z,47.20
2018-10-04T01:49:19.073Z,47.20
2018-10-04T01:50:24.370Z,47.20
2018-10-04T01:51:29.667Z,47.20
2018-10-04T01:52:34.928Z,47.10
2018-10-04T01:53:40.174Z,47.10
2018-10-04T01:54:45.348Z,47.30
2018-10-04T01:55:50.533Z,47.20
2018-10-04T01:56:55.802Z,47.90
2018-10-04T01:58:01.045Z,47.20
2018-10-04T01:59:06.179Z,47.20
2018-10-04T02:00:11.427Z,47.20
2018-10-04T02:01:16.671Z,47.20
2018-10-04T02:02:21.949Z,47.30
2018-10-04T02:03:27.184Z,47.30
2018-10-04T02:04:32.449Z,47.20
2018-10-04T02:05:37.631Z,47.20
2018-10-04T02:06:42.883Z,47.30
2018-10-04T02:07:48.173Z,47.20
2018-10-04T02:08:53.390Z,47.30
2018-10-04T02:09:58.529Z,47.30
2018-10-04T02:11:03.800Z,47.30
2018-10-04T02:12:09.091Z,47.30
2018-10-04T02:13:14.346Z,47.30
2018-10-04T02:14:19.625Z,47.30
2018-10-04T02:15:24.829Z,47.30
2018-10-04T02:16:30.126Z,47.30
2018-10-04T02:17:35.376Z,47.30
2018-10-04T02:18:40.672Z,48.00
2018-10-04T02:19:45.937Z,47.90
2018-10-04T02:20:51.034Z,47.30
2018-10-04T02:21:56.297Z,47.30
2018-10-04T02:23:01.609Z,47.30
2018-10-04T02:24:06.892Z,47.30
2018-10-04T02:25:12.233Z,47.30
2018-10-04T02:26:17.581Z,47.30
2018-10-04T02:27:22.933Z,47.30
2018-10-04T02:28:28.189Z,47.30
2018-10-04T02:29:33.414Z,47.40
2018-10-04T02:30:38.724Z,47.30
2018-10-04T02:31:43.991Z,47.40
2018-10-04T02:32:49.269Z,47.40
2018-10-04T02:33:54.594Z,47.40
2018-10-04T02:34:59.903Z,47.40
2018-10-04T02:36:05.262Z,47.40
2018-10-04T02:37:10.512Z,47.40
2018-10-04T02:38:15.779Z,47.40
2018-10-04T02:39:21.054Z,47.40
2018-10-04T02:40:26.339Z,47.40
2018-10-04T02:41:31.651Z,47.40
2018-10-04T02:42:36.964Z,47.40
2018-10-04T02:43:42.194Z,47.40
2018-10-04T02:44:47.454Z,47.40
2018-10-04T02:45:52.774Z,47.40
2018-10-04T02:46:57.965Z,47.40
2018-10-04T02:48:03.249Z,47.40
2018-10-04T02:49:08.386Z,47.40
2018-10-04T02:50:13.754Z,47.40
2018-10-04T02:51:19.048Z,47.50
2018-10-04T02:52:24.356Z,48.10
2018-10-04T02:53:29.669Z,47.50
2018-10-04T02:54:35.614Z,47.40
2018-10-04T02:55:40.721Z,47.50
2018-10-04T02:56:46.003Z,47.50
2018-10-04T02:57:51.382Z,47.50
2018-10-04T02:58:56.621Z,47.50
2018-10-04T03:00:01.898Z,47.50
2018-10-04T03:01:07.276Z,47.50
2018-10-04T03:02:12.544Z,47.50
2018-10-04T03:03:17.789Z,47.50
2018-10-04T03:04:23.134Z,47.50
2018-10-04T03:05:28.402Z,47.50
2018-10-04T03:06:33.704Z,47.60
2018-10-04T03:07:38.929Z,47.50
2018-10-04T03:08:44.151Z,47.50
2018-10-04T03:09:49.472Z,47.60
2018-10-04T03:10:54.786Z,47.50
2018-10-04T03:12:00.120Z,47.50
2018-10-04T03:13:05.516Z,47.60
2018-10-04T03:14:10.866Z,47.50
2018-10-04T03:15:16.174Z,48.20
2018-10-04T03:16:21.499Z,47.50
2018-10-04T03:17:26.736Z,47.60
2018-10-04T03:18:31.957Z,47.50
2018-10-04T03:19:37.189Z,47.50
2018-10-04T03:20:42.409Z,47.50
2018-10-04T03:21:47.674Z,47.60
2018-10-04T03:22:53.027Z,47.60
2018-10-04T03:23:58.292Z,47.60
2018-10-04T03:25:03.502Z,47.60
2018-10-04T03:26:08.877Z,47.60
2018-10-04T03:27:14.028Z,47.60
2018-10-04T03:28:19.396Z,47.60
2018-10-04T03:29:24.733Z,47.60
2018-10-04T03:30:30.116Z,47.60
2018-10-04T03:31:35.443Z,47.60
2018-10-04T03:32:40.725Z,47.60
2018-10-04T03:33:46.046Z,47.60
2018-10-04T03:34:51.373Z,47.70
2018-10-04T03:35:56.582Z,47.70
2018-10-04T03:37:01.851Z,47.70
2018-10-04T03:38:07.034Z,47.70
2018-10-04T03:39:12.284Z,47.70
2018-10-04T03:40:17.444Z,47.70
2018-10-04T03:41:22.729Z,47.70
2018-10-04T03:42:27.980Z,47.70
2018-10-04T03:43:33.307Z,47.70
2018-10-04T03:44:38.502Z,47.70
2018-10-04T03:45:43.748Z,47.70
2018-10-04T03:46:48.937Z,47.70
2018-10-04T03:47:54.223Z,47.70
2018-10-04T03:48:59.417Z,47.70
2018-10-04T03:50:04.767Z,47.70
2018-10-04T03:51:09.979Z,47.70
2018-10-04T03:52:15.735Z,47.70
2018-10-04T03:53:20.968Z,47.70
2018-10-04T03:54:26.232Z,47.70
2018-10-04T03:55:31.526Z,47.70
2018-10-04T03:56:36.762Z,47.70
2018-10-04T03:57:42.054Z,47.70
2018-10-04T03:58:47.278Z,47.70
2018-10-04T03:59:52.572Z,47.70
2018-10-04T04:00:57.879Z,47.70
2018-10-04T04:02:03.395Z,47.70
2018-10-04T04:03:08.624Z,47.70
2018-10-04T04:04:13.875Z,47.70
2018-10-04T04:05:19.189Z,47.80
2018-10-04T04:06:24.443Z,47.80
2018-10-04T04:07:29.684Z,47.80
2018-10-04T04:08:34.913Z,47.70
2018-10-04T04:09:40.262Z,47.60
2018-10-04T04:10:45.514Z,47.50
2018-10-04T04:11:50.974Z,47.50
2018-10-04T04:12:56.142Z,47.50
2018-10-04T04:14:01.428Z,47.50
2018-10-04T04:15:06.764Z,47.40
2018-10-04T04:16:12.013Z,47.40
2018-10-04T04:17:17.262Z,47.40
2018-10-04T04:18:22.510Z,47.30
2018-10-04T04:19:27.738Z,47.30
2018-10-04T04:20:32.944Z,47.30
2018-10-04T04:21:38.158Z,47.30
2018-10-04T04:22:43.389Z,47.90
2018-10-04T04:23:48.743Z,47.20
2018-10-04T04:24:54.095Z,47.20
2018-10-04T04:25:59.370Z,47.20
2018-10-04T04:27:04.722Z,47.20
2018-10-04T04:28:09.963Z,47.50
2018-10-04T04:29:15.339Z,47.20
2018-10-04T04:30:20.710Z,47.10
2018-10-04T04:31:25.944Z,47.20
2018-10-04T04:32:31.300Z,47.20
2018-10-04T04:33:37.086Z,47.20
2018-10-04T04:34:42.397Z,47.20
2018-10-04T04:35:47.659Z,47.10
2018-10-04T04:36:52.904Z,47.20
2018-10-04T04:37:58.194Z,47.10
2018-10-04T04:39:03.417Z,47.70
2018-10-04T04:40:08.707Z,47.10
2018-10-04T04:41:13.948Z,47.10
2018-10-04T04:42:19.318Z,47.10
2018-10-04T04:43:24.957Z,47.10
2018-10-04T04:44:30.298Z,47.10
2018-10-04T04:45:35.613Z,47.10
2018-10-04T04:46:40.976Z,47.10
2018-10-04T04:47:46.178Z,47.10
2018-10-04T04:48:51.434Z,47.10
2018-10-04T04:49:56.711Z,47.10
2018-10-04T04:51:02.008Z,47.10
2018-10-04T04:52:07.520Z,47.10
2018-10-04T04:53:12.750Z,47.10
2018-10-04T04:54:17.980Z,47.10
2018-10-04T04:55:23.200Z,47.10
2018-10-04T04:56:28.608Z,47.00
2018-10-04T04:57:33.932Z,47.00
2018-10-04T04:58:39.401Z,47.00
2018-10-04T04:59:44.661Z,47.00
2018-10-04T05:00:49.966Z,47.00
2018-10-04T05:01:55.258Z,47.00
2018-10-04T05:03:00.564Z,47.00
2018-10-04T05:04:05.812Z,47.00
2018-10-04T05:05:11.107Z,47.00
2018-10-04T05:06:16.380Z,47.00
2018-10-04T05:07:21.631Z,47.00
2018-10-04T05:08:26.832Z,47.00
2018-10-04T05:09:32.118Z,47.00
2018-10-04T05:10:37.435Z,47.00
2018-10-04T05:11:42.811Z,47.00
2018-10-04T05:12:48.061Z,47.00
2018-10-04T05:13:53.315Z,47.00
2018-10-04T05:14:58.667Z,47.00
2018-10-04T05:16:04.038Z,47.00
2018-10-04T05:17:10.044Z,46.90
2018-10-04T05:18:15.312Z,46.90
2018-10-04T05:19:20.540Z,46.90
2018-10-04T05:20:25.833Z,46.90
2018-10-04T05:21:31.103Z,46.90
2018-10-04T05:22:36.752Z,46.90
2018-10-04T05:23:42.846Z,47.00
2018-10-04T05:24:48.571Z,47.00
2018-10-04T05:25:53.779Z,47.00
2018-10-04T05:26:59.073Z,47.00
2018-10-04T05:28:04.369Z,47.00
2018-10-04T05:29:10.055Z,47.00
2018-10-04T05:30:15.567Z,47.00
2018-10-04T05:31:20.874Z,47.10
2018-10-04T05:32:26.237Z,47.10
2018-10-04T05:33:32.418Z,47.10
2018-10-04T05:34:37.788Z,47.10
2018-10-04T05:35:43.080Z,47.10
2018-10-04T05:36:49.280Z,47.10
2018-10-04T05:37:54.598Z,47.10
2018-10-04T05:38:59.902Z,47.10
2018-10-04T05:40:05.247Z,47.10
2018-10-04T05:41:10.754Z,47.10
2018-10-04T05:42:15.906Z,47.70
2018-10-04T05:43:21.247Z,47.10
2018-10-04T05:44:26.594Z,47.10
2018-10-04T05:45:31.869Z,47.10
2018-10-04T05:46:37.075Z,47.10
2018-10-04T05:47:42.343Z,47.10
2018-10-04T05:48:47.562Z,47.10
2018-10-04T05:49:52.791Z,47.10
2018-10-04T05:50:58.043Z,47.10
2018-10-04T05:52:03.353Z,47.10
2018-10-04T05:53:08.712Z,47.10
2018-10-04T05:54:13.958Z,47.10
2018-10-04T05:55:19.267Z,47.10
2018-10-04T05:56:24.535Z,47.10
2018-10-04T05:57:29.792Z,47.10
2018-10-04T05:58:35.143Z,47.70
2018-10-04T05:59:40.483Z,47.10
2018-10-04T06:00:45.779Z,47.10
2018-10-04T06:01:50.992Z,47.10
2018-10-04T06:02:56.299Z,47.10
2018-10-04T06:04:01.591Z,47.10
2018-10-04T06:05:06.993Z,47.10
2018-10-04T06:06:12.334Z,47.10
2018-10-04T06:07:17.686Z,47.10
2018-10-04T06:08:22.960Z,47.10
2018-10-04T06:09:28.273Z,47.70
2018-10-04T06:10:33.569Z,47.10
2018-10-04T06:11:38.835Z,47.00
2018-10-04T06:12:44.203Z,47.10
2018-10-04T06:13:50.761Z,47.10
2018-10-04T06:14:56.312Z,47.10
2018-10-04T06:16:01.564Z,47.10
2018-10-04T06:17:07.031Z,47.10
2018-10-04T06:18:12.390Z,47.10
2018-10-04T06:20:45.263Z,47.20
2018-10-04T06:21:50.629Z,47.30
2018-10-04T06:22:56.156Z,47.20
2018-10-04T06:24:01.688Z,47.30
2018-10-04T06:25:07.078Z,47.40
2018-10-04T06:26:12.499Z,47.40
2018-10-04T06:27:17.988Z,47.40
2018-10-04T06:28:23.546Z,47.40
2018-10-04T06:29:29.194Z,47.40
2018-10-04T06:30:34.792Z,47.50
2018-10-04T06:31:40.076Z,47.60
2018-10-04T06:32:45.368Z,47.60
2018-10-04T06:33:50.659Z,47.50
2018-10-04T06:34:55.922Z,47.50
2018-10-04T06:36:01.407Z,47.50
2018-10-04T06:37:06.982Z,47.50
2018-10-04T06:38:12.725Z,47.60
2018-10-04T06:39:18.017Z,47.60
2018-10-04T06:40:23.674Z,48.30
2018-10-04T06:41:28.942Z,47.60
2018-10-04T06:42:34.390Z,47.70
2018-10-04T06:43:39.956Z,47.70
2018-10-04T06:44:45.548Z,47.80
2018-10-04T06:45:51.034Z,47.80
2018-10-04T06:46:56.581Z,47.80
2018-10-04T06:48:02.234Z,47.80
2018-10-04T06:49:07.780Z,47.80
2018-10-04T06:50:13.680Z,48.40
2018-10-04T06:51:19.118Z,47.80
2018-10-04T06:52:24.388Z,47.90
2018-10-04T06:53:29.782Z,47.90
2018-10-04T06:54:35.403Z,47.90
2018-10-04T06:55:40.902Z,48.00
2018-10-04T06:56:46.804Z,48.00
2018-10-04T06:57:53.127Z,48.00
2018-10-04T06:58:58.501Z,48.00
2018-10-04T07:00:04.094Z,47.90
2018-10-04T07:01:09.550Z,48.00
2018-10-04T07:02:25.633Z,48.10
2018-10-04T07:03:31.917Z,48.20
2018-10-04T07:04:37.270Z,48.20
2018-10-04T07:05:42.568Z,48.10
2018-10-04T07:06:47.905Z,48.10
2018-10-04T07:07:53.144Z,48.20
2018-10-04T07:08:58.374Z,48.20
2018-10-04T07:10:03.823Z,48.30
2018-10-04T07:11:09.099Z,48.30
2018-10-04T07:12:14.333Z,48.20
2018-10-04T07:13:19.646Z,48.30
2018-10-04T07:14:25.163Z,48.30
2018-10-04T07:15:30.346Z,48.30
2018-10-04T07:16:35.752Z,48.30
2018-10-04T07:17:41.139Z,48.30
2018-10-04T07:18:46.512Z,48.20
2018-10-04T07:19:51.985Z,48.30
2018-10-04T07:20:58.080Z,48.30
2018-10-04T07:22:03.676Z,48.40
2018-10-04T07:23:09.010Z,48.40
2018-10-04T07:24:14.370Z,48.40
2018-10-04T07:25:19.698Z,48.40
2018-10-04T07:26:25.067Z,48.40
2018-10-04T07:27:30.370Z,48.40
2018-10-04T07:28:35.639Z,48.50
2018-10-04T07:29:40.929Z,48.50
2018-10-04T07:30:46.270Z,48.50
2018-10-04T07:31:51.674Z,48.50
2018-10-04T07:32:56.864Z,48.50
2018-10-04T07:34:02.139Z,48.50
2018-10-04T07:35:07.405Z,48.60
2018-10-04T07:36:12.705Z,48.50
2018-10-04T07:37:18.139Z,48.50
2018-10-04T07:38:23.378Z,48.60
2018-10-04T07:39:28.820Z,48.60
2018-10-04T07:40:34.255Z,48.60
2018-10-04T07:41:39.507Z,48.70
2018-10-04T07:42:44.974Z,48.70
2018-10-04T07:43:50.318Z,48.70
2018-10-04T07:44:55.582Z,48.80
2018-10-04T07:46:01.000Z,48.80
2018-10-04T07:47:06.517Z,48.80
2018-10-04T07:48:12.044Z,48.80
2018-10-04T07:49:17.472Z,48.80
2018-10-04T07:50:22.794Z,48.90
2018-10-04T07:51:28.183Z,48.80
2018-10-04T07:52:33.423Z,48.80
2018-10-04T07:53:38.671Z,48.80
2018-10-04T07:54:44.084Z,48.80
2018-10-04T07:55:49.390Z,48.80
2018-10-04T07:56:54.715Z,48.80
2018-10-04T07:57:59.964Z,48.80
2018-10-04T07:59:05.435Z,48.80
2018-10-04T08:00:11.026Z,48.70
2018-10-04T08:01:16.280Z,48.80
2018-10-04T08:02:21.798Z,48.80
2018-10-04T08:03:27.225Z,48.80
2018-10-04T08:04:32.592Z,48.80
2018-10-04T08:05:38.295Z,48.90
2018-10-04T08:06:43.797Z,48.90
2018-10-04T08:07:49.248Z,48.90
2018-10-04T08:08:54.569Z,48.90
2018-10-04T08:09:59.928Z,48.90
2018-10-04T08:11:05.465Z,48.90
2018-10-04T08:12:10.767Z,48.90
2018-10-04T08:13:16.278Z,48.90
2018-10-04T08:14:21.645Z,49.00
2018-10-04T08:15:27.152Z,49.00
2018-10-04T08:16:32.724Z,49.00
2018-10-04T08:17:38.230Z,48.90
2018-10-04T08:18:43.718Z,48.90
2018-10-04T08:19:49.049Z,48.90
2018-10-04T08:20:54.580Z,48.90
2018-10-04T08:22:00.113Z,49.00
2018-10-04T08:23:05.427Z,49.10
2018-10-04T08:24:10.922Z,49.00
2018-10-04T08:25:16.276Z,49.10
2018-10-04T08:26:21.926Z,49.10
2018-10-04T08:27:27.201Z,49.10
2018-10-04T08:28:32.614Z,49.10
2018-10-04T08:29:37.978Z,49.10
2018-10-04T08:30:43.280Z,49.10
2018-10-04T08:31:48.824Z,49.10
2018-10-04T08:32:54.135Z,49.20
2018-10-04T08:33:59.512Z,49.10
2018-10-04T08:35:05.030Z,49.20
2018-10-04T08:36:10.422Z,49.30
2018-10-04T08:37:15.847Z,49.20
2018-10-04T08:38:21.203Z,49.20
2018-10-04T08:39:26.536Z,49.30
2018-10-04T08:40:32.035Z,49.30
2018-10-04T08:41:37.569Z,49.30
2018-10-04T08:42:42.911Z,50.00
2018-10-04T08:43:48.151Z,49.30
2018-10-04T08:44:53.606Z,49.30
2018-10-04T08:45:58.885Z,49.40
2018-10-04T08:47:04.225Z,49.40
2018-10-04T08:48:09.656Z,49.40
2018-10-04T08:49:15.035Z,49.40
2018-10-04T08:50:20.318Z,49.50
2018-10-04T08:51:26.283Z,49.50
2018-10-04T08:52:31.734Z,49.60
2018-10-04T08:53:37.142Z,49.60
2018-10-04T08:54:42.464Z,49.60
2018-10-04T08:55:47.758Z,49.50
2018-10-04T08:56:53.045Z,49.50
2018-10-04T08:57:58.484Z,49.60
2018-10-04T08:59:03.796Z,49.60
2018-10-04T09:00:09.066Z,49.50
2018-10-04T09:01:14.544Z,49.60
2018-10-04T09:02:19.831Z,49.50
2018-10-04T09:03:25.128Z,49.50
2018-10-04T09:04:30.417Z,49.50
2018-10-04T09:05:35.761Z,49.60
2018-10-04T09:06:41.470Z,49.60
2018-10-04T09:07:47.051Z,49.60
2018-10-04T09:08:52.426Z,49.60
2018-10-04T09:09:57.848Z,49.60
2018-10-04T09:11:03.194Z,49.60
2018-10-04T09:12:08.525Z,49.80
2018-10-04T09:13:14.623Z,49.70
2018-10-04T09:14:20.098Z,49.70
2018-10-04T09:15:26.044Z,49.70
2018-10-04T09:16:31.629Z,49.70
2018-10-04T09:17:36.890Z,49.70
2018-10-04T09:18:42.288Z,49.70
2018-10-04T09:19:47.802Z,49.60
2018-10-04T09:20:53.351Z,49.80
2018-10-04T09:21:59.027Z,49.80
2018-10-04T09:23:04.541Z,49.80
2018-10-04T09:24:11.024Z,49.80
2018-10-04T09:25:16.499Z,49.80
2018-10-04T09:26:22.069Z,49.80
2018-10-04T09:27:27.545Z,49.80
2018-10-04T09:28:33.090Z,49.80
2018-10-04T09:29:38.808Z,49.80
2018-10-04T09:30:45.187Z,50.50
2018-10-04T09:31:50.752Z,49.80
2018-10-04T09:32:56.199Z,49.90
2018-10-04T09:34:01.530Z,49.90
2018-10-04T09:35:06.811Z,49.90
2018-10-04T09:36:12.275Z,49.90
2018-10-04T09:37:17.821Z,49.90
2018-10-04T09:38:23.176Z,50.60
2018-10-04T09:39:28.653Z,50.00
2018-10-04T09:40:33.968Z,50.00
2018-10-04T09:41:39.338Z,50.00
2018-10-04T09:42:44.616Z,50.10
2018-10-04T09:43:50.059Z,50.10
2018-10-04T09:44:55.356Z,50.10
2018-10-04T09:46:00.776Z,50.10
2018-10-04T09:47:06.060Z,50.10
2018-10-04T09:48:11.481Z,50.10
2018-10-04T09:49:16.870Z,50.10
2018-10-04T09:50:22.324Z,50.10
2018-10-04T09:51:27.574Z,50.10
2018-10-04T09:52:33.005Z,50.10
2018-10-04T09:53:38.283Z,50.10
2018-10-04T09:54:43.581Z,50.10
2018-10-04T09:55:48.833Z,50.10
2018-10-04T09:56:54.224Z,50.20
2018-10-04T09:57:59.597Z,50.20
2018-10-04T09:59:04.931Z,50.10
2018-10-04T10:00:10.483Z,50.10
2018-10-04T10:01:16.008Z,50.10
2018-10-04T10:02:21.419Z,50.10
2018-10-04T10:03:26.873Z,50.20
2018-10-04T10:04:32.285Z,50.10
2018-10-04T10:05:37.587Z,49.90
2018-10-04T10:06:42.930Z,49.90
2018-10-04T10:07:48.363Z,49.80
2018-10-04T10:08:53.800Z,49.50
2018-10-04T10:09:59.446Z,49.40
2018-10-04T10:11:04.748Z,49.40
2018-10-04T10:12:10.166Z,49.40
2018-10-04T10:13:15.432Z,49.40
2018-10-04T10:14:20.865Z,49.40
2018-10-04T10:15:26.115Z,49.50
2018-10-04T10:16:31.447Z,49.50
2018-10-04T10:17:37.005Z,49.60
2018-10-04T10:18:43.528Z,49.40
2018-10-04T10:19:48.961Z,49.50
2018-10-04T10:20:54.455Z,49.50
2018-10-04T10:21:59.951Z,49.50
2018-10-04T10:23:05.300Z,49.40
2018-10-04T10:24:10.761Z,49.50
2018-10-04T10:25:16.356Z,49.50
2018-10-04T10:26:22.182Z,49.50
2018-10-04T10:27:27.908Z,49.50
2018-10-04T10:28:33.373Z,49.60
2018-10-04T10:29:38.914Z,49.50
2018-10-04T10:30:44.386Z,49.50
2018-10-04T10:31:50.045Z,49.50
2018-10-04T10:32:55.459Z,49.40
2018-10-04T10:34:00.913Z,49.40
2018-10-04T10:35:06.248Z,49.40
2018-10-04T10:36:11.911Z,50.10
2018-10-04T10:37:17.319Z,49.40
2018-10-04T10:38:22.982Z,49.40
2018-10-04T10:39:28.468Z,49.40
2018-10-04T10:40:34.344Z,49.30
2018-10-04T10:41:39.661Z,49.30
2018-10-04T10:42:45.276Z,49.30
2018-10-04T10:43:50.647Z,49.40
2018-10-04T10:44:56.168Z,49.30
2018-10-04T10:46:01.654Z,49.30
2018-10-04T10:47:07.363Z,49.30
2018-10-04T10:48:12.889Z,49.40
2018-10-04T10:49:18.446Z,49.30
2018-10-04T10:50:23.849Z,49.30
2018-10-04T10:51:29.265Z,49.40
2018-10-04T10:52:34.762Z,49.30
2018-10-04T10:53:40.286Z,49.30
2018-10-04T10:54:45.618Z,49.30
2018-10-04T10:55:51.127Z,49.30
2018-10-04T10:56:56.725Z,49.30
2018-10-04T10:58:02.363Z,49.30
2018-10-04T10:59:07.870Z,49.30
2018-10-04T11:00:13.282Z,49.30
2018-10-04T11:01:18.649Z,49.40
2018-10-04T11:02:24.199Z,49.30
2018-10-04T11:03:29.748Z,49.30
2018-10-04T11:04:35.249Z,49.30
2018-10-04T11:05:40.846Z,49.40
2018-10-04T11:06:46.258Z,49.30
2018-10-04T11:07:51.690Z,49.30
2018-10-04T11:08:57.108Z,49.30
2018-10-04T11:10:03.000Z,49.30
2018-10-04T11:11:08.287Z,49.30
2018-10-04T11:12:13.763Z,49.90
2018-10-04T11:13:19.067Z,49.30
2018-10-04T11:14:24.584Z,49.30
2018-10-04T11:15:29.932Z,49.30
2018-10-04T11:16:35.473Z,49.30
2018-10-04T11:17:41.002Z,49.30
2018-10-04T11:18:46.646Z,49.30
2018-10-04T11:19:52.099Z,49.30
2018-10-04T11:20:57.483Z,49.20
2018-10-04T11:22:03.256Z,49.20
2018-10-04T11:23:08.769Z,49.30
2018-10-04T11:24:14.514Z,49.30
2018-10-04T11:25:19.959Z,49.30
2018-10-04T11:26:25.283Z,49.40
2018-10-04T11:27:30.826Z,49.30
2018-10-04T11:28:36.294Z,49.30
2018-10-04T11:29:41.709Z,49.30
2018-10-04T11:30:47.197Z,49.30
2018-10-04T11:31:52.646Z,49.30
2018-10-04T11:32:58.299Z,49.30
2018-10-04T11:34:03.693Z,49.30
2018-10-04T11:35:09.228Z,49.30
2018-10-04T11:36:14.626Z,49.30
2018-10-04T11:37:20.186Z,49.30
2018-10-04T11:38:25.919Z,49.30
2018-10-04T11:39:31.455Z,49.30
2018-10-04T11:40:37.236Z,49.30
2018-10-04T11:41:45.755Z,49.30
2018-10-04T11:42:51.433Z,49.30
2018-10-04T11:43:56.867Z,49.30
2018-10-04T11:45:02.665Z,49.30
2018-10-04T11:46:08.265Z,49.30
2018-10-04T11:47:13.879Z,49.30
2018-10-04T11:48:19.239Z,49.40
2018-10-04T11:49:24.915Z,49.40
2018-10-04T11:50:30.279Z,49.40
2018-10-04T11:51:35.638Z,49.30
2018-10-04T11:52:41.037Z,49.30
2018-10-04T11:53:46.533Z,49.40
2018-10-04T11:54:52.194Z,49.40
2018-10-04T11:55:58.285Z,49.40
2018-10-04T11:57:03.670Z,49.40
2018-10-04T11:58:09.082Z,49.40
2018-10-04T11:59:14.650Z,49.40
2018-10-04T12:00:19.932Z,49.40
2018-10-04T12:01:25.400Z,49.40
2018-10-04T12:02:30.762Z,49.30
2018-10-04T12:03:35.952Z,49.40
2018-10-04T12:04:41.257Z,49.40
2018-10-04T12:05:46.722Z,49.40
2018-10-04T12:06:52.331Z,49.40
2018-10-04T12:07:57.687Z,49.40
2018-10-04T12:09:03.097Z,49.40
2018-10-04T12:10:08.366Z,49.40
2018-10-04T12:11:13.747Z,49.90
2018-10-04T12:12:19.297Z,49.40
2018-10-04T12:13:24.784Z,49.40
2018-10-04T12:14:30.176Z,49.40
2018-10-04T12:15:35.637Z,49.40
2018-10-04T12:16:41.062Z,49.40
2018-10-04T12:17:46.757Z,49.40
2018-10-04T12:18:52.240Z,49.30
2018-10-04T12:19:57.531Z,49.40
2018-10-04T12:21:02.814Z,49.40
2018-10-04T12:22:08.289Z,49.40
2018-10-04T12:23:13.575Z,49.40
2018-10-04T12:24:18.976Z,49.40
2018-10-04T12:25:24.262Z,49.50
2018-10-04T12:26:29.737Z,49.40
2018-10-04T12:27:35.071Z,49.40
2018-10-04T12:28:40.422Z,49.40
2018-10-04T12:29:45.729Z,49.40
2018-10-04T12:30:51.297Z,49.40
2018-10-04T12:31:57.054Z,49.40
2018-10-04T12:33:02.344Z,49.40
2018-10-04T12:34:07.883Z,49.40
2018-10-04T12:35:13.478Z,49.50
2018-10-04T12:36:19.028Z,49.50
2018-10-04T12:37:24.510Z,49.50
2018-10-04T12:38:30.100Z,49.50
2018-10-04T12:39:35.741Z,49.50
2018-10-04T12:40:41.486Z,49.50
2018-10-04T12:41:46.776Z,49.60
2018-10-04T12:42:52.108Z,49.60
2018-10-04T12:43:57.691Z,49.60
2018-10-04T12:45:03.099Z,49.60
2018-10-04T12:46:08.595Z,49.60
2018-10-04T12:47:14.524Z,49.60
2018-10-04T12:48:19.828Z,49.70
2018-10-04T12:49:25.221Z,49.60
2018-10-04T12:50:30.887Z,49.60
2018-10-04T12:51:36.560Z,49.60
2018-10-04T12:52:42.397Z,49.60
2018-10-04T12:53:47.763Z,49.60
2018-10-04T12:54:53.646Z,49.60
2018-10-04T12:55:59.075Z,49.60
2018-10-04T12:57:04.734Z,49.60
2018-10-04T12:58:10.310Z,49.60
2018-10-04T12:59:15.743Z,49.70
2018-10-04T13:00:21.122Z,49.60
2018-10-04T13:01:26.449Z,49.60
2018-10-04T13:02:32.251Z,49.60
2018-10-04T13:03:37.686Z,49.60
2018-10-04T13:04:42.996Z,49.60
2018-10-04T13:05:48.391Z,49.60
2018-10-04T13:06:53.966Z,49.60
2018-10-04T13:07:59.485Z,49.60
2018-10-04T13:09:05.097Z,49.70
2018-10-04T13:10:10.398Z,49.60
2018-10-04T13:11:15.720Z,49.60
2018-10-04T13:12:21.170Z,49.60
2018-10-04T13:13:26.749Z,49.70
2018-10-04T13:14:32.330Z,49.70
2018-10-04T13:15:38.142Z,49.80
2018-10-04T13:16:43.695Z,49.80
2018-10-04T13:17:49.003Z,49.80
2018-10-04T13:18:54.500Z,49.80
2018-10-04T13:20:00.077Z,49.80
2018-10-04T13:21:05.653Z,49.80
2018-10-04T13:22:10.763Z,49.80
2018-10-04T13:23:16.156Z,49.80
2018-10-04T13:24:21.563Z,49.80
2018-10-04T13:25:27.067Z,49.90
2018-10-04T13:26:32.374Z,49.90
2018-10-04T13:27:37.697Z,50.00
2018-10-04T13:28:43.167Z,49.90
2018-10-04T13:29:48.473Z,49.90
2018-10-04T13:30:53.943Z,50.00
2018-10-04T13:31:59.438Z,49.90
2018-10-04T13:33:04.727Z,50.00
2018-10-04T13:34:10.325Z,50.00
2018-10-04T13:35:15.599Z,50.00
2018-10-04T13:36:20.928Z,50.00
2018-10-04T13:37:26.414Z,50.10
2018-10-04T13:38:31.886Z,50.10
2018-10-04T13:39:37.205Z,50.00
2018-10-04T13:40:42.736Z,50.00
2018-10-04T13:41:48.331Z,50.10
2018-10-04T13:42:53.943Z,50.10
2018-10-04T13:43:59.510Z,50.00
2018-10-04T13:45:05.169Z,50.10
2018-10-04T13:46:10.835Z,50.10
2018-10-04T13:47:16.459Z,50.10
2018-10-04T13:48:21.827Z,50.20
2018-10-04T13:49:27.101Z,50.10
2018-10-04T13:50:32.432Z,50.10
2018-10-04T13:51:37.745Z,50.10
2018-10-04T13:52:43.314Z,50.20
2018-10-04T13:53:48.614Z,50.20
2018-10-04T13:54:54.065Z,50.20
2018-10-04T13:55:59.447Z,50.30
2018-10-04T13:57:04.761Z,50.20
2018-10-04T13:58:10.036Z,50.20
2018-10-04T13:59:15.718Z,50.20
2018-10-04T14:00:21.023Z,50.20
2018-10-04T14:01:26.579Z,50.20
2018-10-04T14:02:31.937Z,50.20
2018-10-04T14:03:37.369Z,50.20